Aksa, Russia
Current Conditions -  °F | °C
As of 9:30 AM on Friday 28 Nov 2014 (Local Time) from UIAA Reporting Station
Light Snow Light Snow  
Wind Chill: -11°   Ceiling: 10000
Heat Index:   Visibility: 1.9mi
Dew Point: -4°   Wind: 7mph
Humidity: 78%   Direction: 40°NE
Pressure: 29.77"   Gusts: NA
Location:  50.27°N, 113.27°E
Report Text: UIAA 280030Z 04003MPS 3100 -SN BR OVC100 M17/M20 Q1008 TEMPO1800 SN BR RMK QFE698 29490150
Loading
Personal Weather Stations






























Interactive Weather Map New forecast layout! Learn more

10-Day Weather Forecast

Advertisements
Track Severe Weather on mobile